Alts de San Pedro, Puerto Rico
Current Conditions -  °F | °C
As of 1:53 AM on Thursday 18 Dec 2014 (Local Time) from TJNR Reporting Station
Overcast Overcast  
Wind Chill: 77°   Ceiling: 8500
Heat Index: 79°   Visibility: 10mi
Dew Point: 66°   Wind: 8mph
Humidity: 69%   Direction: 30°NNE
Pressure: 30.02"   Gusts: NA
Location:  18.3304°N, 65.6573°W
Report Text: TJNR 180553Z AUTO 03007KT 10SM FEW050 OVC085 25/19 A3002 RMK AO2 RAB06E18 SLP166 P0000 60000 T02500189 10256 20233 57014 $
Loading
Personal Weather Stations






























Interactive Weather Map New forecast layout! Learn more

10-Day Weather Forecast

Advertisements
Track Severe Weather on mobile